sensor_id;sensor_type;location;lat;lon;timestamp;pressure;altitude;pressure_sealevel;temperature;humidity
83027;BME280;72842;56.038;12.706;2024-03-02T00:00:00;100850.28;;;10.11;69.56
83027;BME280;72842;56.038;12.706;2024-03-02T00:02:25;100847.59;;;10.11;69.12
83027;BME280;72842;56.038;12.706;2024-03-02T00:04:51;100842.38;;;10.09;69.24
83027;BME280;72842;56.038;12.706;2024-03-02T00:07:17;100838.00;;;10.08;69.15
83027;BME280;72842;56.038;12.706;2024-03-02T00:09:42;100838.63;;;10.12;69.58
83027;BME280;72842;56.038;12.706;2024-03-02T00:12:09;100839.50;;;10.12;68.96
83027;BME280;72842;56.038;12.706;2024-03-02T00:14:37;100827.06;;;10.11;69.60
83027;BME280;72842;56.038;12.706;2024-03-02T00:17:02;100831.47;;;10.12;69.30
83027;BME280;72842;56.038;12.706;2024-03-02T00:19:28;100823.53;;;10.11;69.22
83027;BME280;72842;56.038;12.706;2024-03-02T00:21:54;100809.91;;;10.03;69.34
83027;BME280;72842;56.038;12.706;2024-03-02T00:24:34;100823.44;;;10.12;68.96
83027;BME280;72842;56.038;12.706;2024-03-02T00:27:00;100825.38;;;10.10;69.45
83027;BME280;72842;56.038;12.706;2024-03-02T00:29:27;100821.63;;;10.13;68.87
83027;BME280;72842;56.038;12.706;2024-03-02T00:31:53;100813.59;;;10.13;69.42
83027;BME280;72842;56.038;12.706;2024-03-02T00:34:19;100810.09;;;10.12;69.41
83027;BME280;72842;56.038;12.706;2024-03-02T00:36:45;100797.66;;;10.11;68.78
83027;BME280;72842;56.038;12.706;2024-03-02T00:39:12;100801.19;;;10.12;68.74
83027;BME280;72842;56.038;12.706;2024-03-02T00:41:40;100802.06;;;10.12;69.51
83027;BME280;72842;56.038;12.706;2024-03-02T00:44:09;100800.13;;;10.14;69.24
83027;BME280;72842;56.038;12.706;2024-03-02T00:46:41;100791.38;;;10.12;69.27
83027;BME280;72842;56.038;12.706;2024-03-02T00:49:18;100792.22;;;10.13;69.16
83027;BME280;72842;56.038;12.706;2024-03-02T00:51:47;100787.72;;;10.13;69.75
83027;BME280;72842;56.038;12.706;2024-03-02T00:54:14;100794.78;;;10.14;69.38
83027;BME280;72842;56.038;12.706;2024-03-02T00:56:41;100793.06;;;10.13;69.16
83027;BME280;72842;56.038;12.706;2024-03-02T00:59:07;100793.91;;;10.14;69.12
83027;BME280;72842;56.038;12.706;2024-03-02T01:01:33;100790.41;;;10.13;69.05
83027;BME280;72842;56.038;12.706;2024-03-02T01:03:59;100786.88;;;10.13;69.33
83027;BME280;72842;56.038;12.706;2024-03-02T01:06:24;100775.53;;;10.09;69.07
83027;BME280;72842;56.038;12.706;2024-03-02T01:08:50;100787.72;;;10.13;69.22
83027;BME280;72842;56.038;12.706;2024-03-02T01:11:17;100782.38;;;10.13;69.30
83027;BME280;72842;56.038;12.706;2024-03-02T01:13:44;100785.03;;;10.13;68.67
83027;BME280;72842;56.038;12.706;2024-03-02T01:16:09;100778.84;;;10.13;69.16
83027;BME280;72842;56.038;12.706;2024-03-02T01:18:35;100777.88;;;10.14;68.89
83027;BME280;72842;56.038;12.706;2024-03-02T01:21:00;100782.38;;;10.13;68.97
83027;BME280;72842;56.038;12.706;2024-03-02T01:23:26;100781.53;;;10.13;69.58
83027;BME280;72842;56.038;12.706;2024-03-02T01:25:52;100775.31;;;10.12;69.22
83027;BME280;72842;56.038;12.706;2024-03-02T01:28:18;100781.53;;;10.13;68.86
83027;BME280;72842;56.038;12.706;2024-03-02T01:30:45;100778.94;;;10.11;69.22
83027;BME280;72842;56.038;12.706;2024-03-02T01:33:11;100768.69;;;10.05;68.82
83027;BME280;72842;56.038;12.706;2024-03-02T01:35:37;100777.22;;;10.10;68.58
83027;BME280;72842;56.038;12.706;2024-03-02T01:38:03;100764.63;;;10.12;69.27
83027;BME280;72842;56.038;12.706;2024-03-02T01:40:29;100768.25;;;10.11;69.22
83027;BME280;72842;56.038;12.706;2024-03-02T01:42:54;100763.75;;;10.12;69.15
83027;BME280;72842;56.038;12.706;2024-03-02T01:45:21;100751.34;;;10.11;68.88
83027;BME280;72842;56.038;12.706;2024-03-02T01:47:47;100754.03;;;10.11;68.88
83027;BME280;72842;56.038;12.706;2024-03-02T01:50:12;100745.16;;;10.10;68.65
83027;BME280;72842;56.038;12.706;2024-03-02T01:52:39;100750.50;;;10.10;69.02
83027;BME280;72842;56.038;12.706;2024-03-02T01:55:05;100746.97;;;10.10;69.29
83027;BME280;72842;56.038;12.706;2024-03-02T01:57:34;100740.78;;;10.09;68.92
83027;BME280;72842;56.038;12.706;2024-03-02T02:00:00;100736.41;;;10.08;68.72
83027;BME280;72842;56.038;12.706;2024-03-02T02:02:26;100733.72;;;10.08;69.14
83027;BME280;72842;56.038;12.706;2024-03-02T02:04:51;100736.41;;;10.08;69.21
83027;BME280;72842;56.038;12.706;2024-03-02T02:07:17;100729.56;;;10.04;68.83
83027;BME280;72842;56.038;12.706;2024-03-02T02:09:43;100729.34;;;10.07;69.03
83027;BME280;72842;56.038;12.706;2024-03-02T02:12:09;100725.84;;;10.07;68.81
83027;BME280;72842;56.038;12.706;2024-03-02T02:14:36;100708.19;;;10.04;68.92
83027;BME280;72842;56.038;12.706;2024-03-02T02:17:01;100713.53;;;10.04;68.79
83027;BME280;72842;56.038;12.706;2024-03-02T02:19:27;100707.22;;;10.05;69.38
83027;BME280;72842;56.038;12.706;2024-03-02T02:21:52;100701.00;;;10.05;68.61
83027;BME280;72842;56.038;12.706;2024-03-02T02:24:18;100697.75;;;10.01;69.09
83027;BME280;72842;56.038;12.706;2024-03-02T02:26:43;100706.47;;;10.03;68.85
83027;BME280;72842;56.038;12.706;2024-03-02T02:29:09;100702.00;;;10.04;69.04
83027;BME280;72842;56.038;12.706;2024-03-02T02:31:41;100695.91;;;10.02;68.88
83027;BME280;72842;56.038;12.706;2024-03-02T02:34:07;100703.94;;;10.02;69.31
83027;BME280;72842;56.038;12.706;2024-03-02T02:36:33;100699.44;;;10.02;68.58
83027;BME280;72842;56.038;12.706;2024-03-02T02:39:02;100697.75;;;10.01;68.97
83027;BME280;72842;56.038;12.706;2024-03-02T02:41:32;100697.75;;;10.01;68.61
83027;BME280;72842;56.038;12.706;2024-03-02T02:43:57;100692.53;;;9.99;69.19
83027;BME280;72842;56.038;12.706;2024-03-02T02:46:23;100687.16;;;9.99;68.74
83027;BME280;72842;56.038;12.706;2024-03-02T02:48:48;100682.66;;;10.00;69.12
83027;BME280;72842;56.038;12.706;2024-03-02T02:51:14;100680.00;;;10.00;68.93
83027;BME280;72842;56.038;12.706;2024-03-02T02:53:39;100670.50;;;9.96;68.97
83027;BME280;72842;56.038;12.706;2024-03-02T02:56:08;100679.16;;;9.99;69.05
83027;BME280;72842;56.038;12.706;2024-03-02T02:58:34;100680.94;;;9.99;69.18
83027;BME280;72842;56.038;12.706;2024-03-02T03:00:59;100675.59;;;9.99;69.31
83027;BME280;72842;56.038;12.706;2024-03-02T03:03:24;100676.47;;;9.99;68.91
83027;BME280;72842;56.038;12.706;2024-03-02T03:05:50;100660.53;;;9.98;68.66
83027;BME280;72842;56.038;12.706;2024-03-02T03:08:15;100666.72;;;9.98;69.03
83027;BME280;72842;56.038;12.706;2024-03-02T03:10:41;100672.06;;;9.98;68.75
83027;BME280;72842;56.038;12.706;2024-03-02T03:13:07;100681.91;;;9.98;68.89
83027;BME280;72842;56.038;12.706;2024-03-02T03:15:35;100672.91;;;9.99;68.52
83027;BME280;72842;56.038;12.706;2024-03-02T03:18:04;100672.06;;;9.98;68.64
83027;BME280;72842;56.038;12.706;2024-03-02T03:20:30;100663.19;;;9.98;68.59
83027;BME280;72842;56.038;12.706;2024-03-02T03:22:57;100668.56;;;9.98;68.66
83027;BME280;72842;56.038;12.706;2024-03-02T03:25:23;100660.53;;;9.98;68.82
83027;BME280;72842;56.038;12.706;2024-03-02T03:27:48;100666.72;;;9.98;68.64
83027;BME280;72842;56.038;12.706;2024-03-02T03:30:14;100660.53;;;9.98;69.10
83027;BME280;72842;56.038;12.706;2024-03-02T03:32:39;100664.06;;;9.98;69.23
83027;BME280;72842;56.038;12.706;2024-03-02T03:35:06;100664.06;;;9.98;68.71
83027;BME280;72842;56.038;12.706;2024-03-02T03:37:31;100664.91;;;9.99;69.12
83027;BME280;72842;56.038;12.706;2024-03-02T03:39:59;100661.38;;;9.98;69.17
83027;BME280;72842;56.038;12.706;2024-03-02T03:42:25;100660.78;;;9.95;68.65
83027;BME280;72842;56.038;12.706;2024-03-02T03:44:50;100657.00;;;9.97;68.97
83027;BME280;72842;56.038;12.706;2024-03-02T03:47:15;100660.53;;;9.98;69.14
83027;BME280;72842;56.038;12.706;2024-03-02T03:49:41;100657.84;;;9.98;69.15
83027;BME280;72842;56.038;12.706;2024-03-02T03:52:06;100643.63;;;9.97;68.82
83027;BME280;72842;56.038;12.706;2024-03-02T03:54:32;100644.50;;;9.98;69.11
83027;BME280;72842;56.038;12.706;2024-03-02T03:56:57;100644.50;;;9.98;69.00
83027;BME280;72842;56.038;12.706;2024-03-02T03:59:23;100649.84;;;9.98;68.65
83027;BME280;72842;56.038;12.706;2024-03-02T04:01:49;100643.63;;;9.97;69.06
83027;BME280;72842;56.038;12.706;2024-03-02T04:04:14;100651.53;;;9.99;68.85
83027;BME280;72842;56.038;12.706;2024-03-02T04:06:40;100648.00;;;9.98;68.75
83027;BME280;72842;56.038;12.706;2024-03-02T04:09:05;100633.78;;;9.98;69.16
83027;BME280;72842;56.038;12.706;2024-03-02T04:11:31;100632.94;;;9.97;68.88
83027;BME280;72842;56.038;12.706;2024-03-02T04:13:56;100640.97;;;9.97;69.11
83027;BME280;72842;56.038;12.706;2024-03-02T04:16:21;100641.81;;;9.98;69.14
83027;BME280;72842;56.038;12.706;2024-03-02T04:18:48;100644.50;;;9.98;69.07
83027;BME280;72842;56.038;12.706;2024-03-02T04:21:13;100640.13;;;9.97;69.20
83027;BME280;72842;56.038;12.706;2024-03-02T04:23:39;100644.50;;;9.98;69.17
83027;BME280;72842;56.038;12.706;2024-03-02T04:26:04;100648.97;;;9.97;69.08
83027;BME280;72842;56.038;12.706;2024-03-02T04:28:30;100641.94;;;9.96;69.11
83027;BME280;72842;56.038;12.706;2024-03-02T04:30:55;100638.41;;;9.96;68.70
83027;BME280;72842;56.038;12.706;2024-03-02T04:33:21;100639.28;;;9.96;69.28
83027;BME280;72842;56.038;12.706;2024-03-02T04:35:46;100645.59;;;9.95;68.92
83027;BME280;72842;56.038;12.706;2024-03-02T04:38:12;100638.53;;;9.94;68.89
83027;BME280;72842;56.038;12.706;2024-03-02T04:40:37;100643.03;;;9.94;69.13
83027;BME280;72842;56.038;12.706;2024-03-02T04:43:03;100649.97;;;9.96;69.15
83027;BME280;72842;56.038;12.706;2024-03-02T04:45:29;100637.56;;;9.95;69.44
83027;BME280;72842;56.038;12.706;2024-03-02T04:47:54;100640.25;;;9.95;69.63
83027;BME280;72842;56.038;12.706;2024-03-02T04:50:20;100643.75;;;9.96;69.02
83027;BME280;72842;56.038;12.706;2024-03-02T04:52:45;100651.78;;;9.96;69.24
83027;BME280;72842;56.038;12.706;2024-03-02T04:55:10;100653.72;;;9.94;69.66
83027;BME280;72842;56.038;12.706;2024-03-02T04:57:43;100658.84;;;9.97;69.68
83027;BME280;72842;56.038;12.706;2024-03-02T05:00:09;100650.81;;;9.97;69.49
83027;BME280;72842;56.038;12.706;2024-03-02T05:02:35;100649.84;;;9.98;69.86
83027;BME280;72842;56.038;12.706;2024-03-02T05:05:00;100655.19;;;9.98;69.49
83027;BME280;72842;56.038;12.706;2024-03-02T05:07:26;100654.34;;;9.97;69.41
83027;BME280;72842;56.038;12.706;2024-03-02T05:09:51;100652.50;;;9.98;69.56
83027;BME280;72842;56.038;12.706;2024-03-02T05:12:17;100646.44;;;9.96;69.83
83027;BME280;72842;56.038;12.706;2024-03-02T05:15:01;100661.38;;;9.98;69.48
83027;BME280;72842;56.038;12.706;2024-03-02T05:17:27;100655.19;;;9.98;69.70
83027;BME280;72842;56.038;12.706;2024-03-02T05:19:52;100656.88;;;9.99;69.60
83027;BME280;72842;56.038;12.706;2024-03-02T05:22:18;100655.19;;;9.98;70.32
83027;BME280;72842;56.038;12.706;2024-03-02T05:24:43;100661.38;;;9.98;69.80
83027;BME280;72842;56.038;12.706;2024-03-02T05:27:08;100656.03;;;9.98;70.59
83027;BME280;72842;56.038;12.706;2024-03-02T05:29:34;100658.72;;;9.98;70.28
83027;BME280;72842;56.038;12.706;2024-03-02T05:31:59;100664.06;;;9.98;70.13
83027;BME280;72842;56.038;12.706;2024-03-02T05:34:25;100650.81;;;9.97;69.74
83027;BME280;72842;56.038;12.706;2024-03-02T05:36:50;100653.47;;;9.97;70.31
83027;BME280;72842;56.038;12.706;2024-03-02T05:39:16;100649.59;;;9.90;69.62
83027;BME280;72842;56.038;12.706;2024-03-02T05:41:41;100658.84;;;9.97;70.43
83027;BME280;72842;56.038;12.706;2024-03-02T05:44:06;100652.63;;;9.96;70.08
83027;BME280;72842;56.038;12.706;2024-03-02T05:46:32;100657.00;;;9.97;70.26
83027;BME280;72842;56.038;12.706;2024-03-02T05:49:01;100640.34;;;9.83;70.23
83027;BME280;72842;56.038;12.706;2024-03-02T05:51:27;100659.69;;;9.97;69.75
83027;BME280;72842;56.038;12.706;2024-03-02T05:53:53;100660.53;;;9.98;69.95
83027;BME280;72842;56.038;12.706;2024-03-02T05:56:18;100657.84;;;9.98;70.63
83027;BME280;72842;56.038;12.706;2024-03-02T05:58:43;100659.56;;;9.99;69.84
83027;BME280;72842;56.038;12.706;2024-03-02T06:01:09;100662.34;;;9.97;70.48
83027;BME280;72842;56.038;12.706;2024-03-02T06:03:34;100664.19;;;9.97;70.15
83027;BME280;72842;56.038;12.706;2024-03-02T06:06:00;100662.34;;;9.97;70.67
83027;BME280;72842;56.038;12.706;2024-03-02T06:08:25;100659.69;;;9.97;70.62
83027;BME280;72842;56.038;12.706;2024-03-02T06:10:50;100662.34;;;9.97;70.11
83027;BME280;72842;56.038;12.706;2024-03-02T06:13:16;100661.38;;;9.98;70.46
83027;BME280;72842;56.038;12.706;2024-03-02T06:15:41;100664.19;;;9.97;70.48
83027;BME280;72842;56.038;12.706;2024-03-02T06:18:07;100671.97;;;10.00;70.12
83027;BME280;72842;56.038;12.706;2024-03-02T06:20:33;100663.97;;;10.00;70.10
83027;BME280;72842;56.038;12.706;2024-03-02T06:22:58;100667.47;;;10.00;70.05
83027;BME280;72842;56.038;12.706;2024-03-02T06:25:24;100659.69;;;9.97;70.03
83027;BME280;72842;56.038;12.706;2024-03-02T06:27:49;100667.56;;;9.99;70.21
83027;BME280;72842;56.038;12.706;2024-03-02T06:30:15;100673.69;;;10.01;70.07
83027;BME280;72842;56.038;12.706;2024-03-02T06:32:40;100675.38;;;10.02;70.18
83027;BME280;72842;56.038;12.706;2024-03-02T06:35:06;100677.06;;;10.03;70.25
83027;BME280;72842;56.038;12.706;2024-03-02T06:37:35;100674.41;;;10.03;70.57
83027;BME280;72842;56.038;12.706;2024-03-02T06:40:01;100676.22;;;10.03;70.54
83027;BME280;72842;56.038;12.706;2024-03-02T06:42:26;100671.72;;;10.03;70.01
83027;BME280;72842;56.038;12.706;2024-03-02T06:44:51;100672.56;;;10.04;70.29
83027;BME280;72842;56.038;12.706;2024-03-02T06:47:17;100670.88;;;10.03;70.53
83027;BME280;72842;56.038;12.706;2024-03-02T06:49:43;100667.22;;;10.04;69.90
83027;BME280;72842;56.038;12.706;2024-03-02T06:52:08;100669.91;;;10.04;70.25
83027;BME280;72842;56.038;12.706;2024-03-02T06:54:33;100679.63;;;10.05;70.47
83027;BME280;72842;56.038;12.706;2024-03-02T06:57:00;100669.91;;;10.04;70.20
83027;BME280;72842;56.038;12.706;2024-03-02T06:59:25;100670.75;;;10.04;70.29
83027;BME280;72842;56.038;12.706;2024-03-02T07:01:51;100676.09;;;10.04;70.25
83027;BME280;72842;56.038;12.706;2024-03-02T07:04:16;100674.41;;;10.03;70.28
83027;BME280;72842;56.038;12.706;2024-03-02T07:06:41;100676.09;;;10.04;70.88
83027;BME280;72842;56.038;12.706;2024-03-02T07:09:07;100676.09;;;10.04;70.07
83027;BME280;72842;56.038;12.706;2024-03-02T07:11:36;100680.47;;;10.05;70.48
83027;BME280;72842;56.038;12.706;2024-03-02T07:14:01;100680.47;;;10.05;70.49
83027;BME280;72842;56.038;12.706;2024-03-02T07:16:27;100682.19;;;10.06;70.28
83027;BME280;72842;56.038;12.706;2024-03-02T07:18:58;100667.56;;;9.99;71.03
83027;BME280;72842;56.038;12.706;2024-03-02T07:21:24;100675.88;;;10.07;70.70
83027;BME280;72842;56.038;12.706;2024-03-02T07:23:50;100682.94;;;10.08;70.96
83027;BME280;72842;56.038;12.706;2024-03-02T07:26:16;100667.34;;;10.02;69.90
83027;BME280;72842;56.038;12.706;2024-03-02T07:28:44;100683.66;;;10.10;70.92
83027;BME280;72842;56.038;12.706;2024-03-02T07:31:09;100686.31;;;10.10;70.39
83027;BME280;72842;56.038;12.706;2024-03-02T07:33:35;100678.31;;;10.10;70.30
83027;BME280;72842;56.038;12.706;2024-03-02T07:36:01;100681.72;;;10.12;70.46
83027;BME280;72842;56.038;12.706;2024-03-02T07:38:28;100674.56;;;10.13;71.04
83027;BME280;72842;56.038;12.706;2024-03-02T07:40:54;100678.94;;;10.14;70.84
83027;BME280;72842;56.038;12.706;2024-03-02T07:43:20;100683.31;;;10.15;70.88
83027;BME280;72842;56.038;12.706;2024-03-02T07:45:46;100693.16;;;10.14;70.92
83027;BME280;72842;56.038;12.706;2024-03-02T07:48:11;100689.84;;;10.11;70.86
83027;BME280;72842;56.038;12.706;2024-03-02T07:50:37;100693.88;;;10.16;70.97
83027;BME280;72842;56.038;12.706;2024-03-02T07:53:06;100687.56;;;10.17;70.78
83027;BME280;72842;56.038;12.706;2024-03-02T07:55:33;100698.25;;;10.17;71.13
83027;BME280;72842;56.038;12.706;2024-03-02T07:58:00;100690.22;;;10.17;70.41
83027;BME280;72842;56.038;12.706;2024-03-02T08:00:25;100686.63;;;10.18;70.58
83027;BME280;72842;56.038;12.706;2024-03-02T08:02:51;100687.47;;;10.19;70.79
83027;BME280;72842;56.038;12.706;2024-03-02T08:05:17;100679.78;;;10.14;70.76
83027;BME280;72842;56.038;12.706;2024-03-02T08:07:45;100689.16;;;10.20;70.96
83027;BME280;72842;56.038;12.706;2024-03-02T08:10:10;100690.00;;;10.20;71.32
83027;BME280;72842;56.038;12.706;2024-03-02T08:12:36;100695.34;;;10.20;71.17
83027;BME280;72842;56.038;12.706;2024-03-02T08:15:01;100692.69;;;10.20;71.22
83027;BME280;72842;56.038;12.706;2024-03-02T08:17:27;100691.72;;;10.21;71.55
83027;BME280;72842;56.038;12.706;2024-03-02T08:19:53;100695.22;;;10.22;70.43
83027;BME280;72842;56.038;12.706;2024-03-02T08:22:19;100683.19;;;10.16;71.08
83027;BME280;72842;56.038;12.706;2024-03-02T08:24:44;100694.63;;;10.18;71.29
83027;BME280;72842;56.038;12.706;2024-03-02T08:27:10;100685.00;;;10.16;71.44
83027;BME280;72842;56.038;12.706;2024-03-02T08:29:35;100698.75;;;10.22;71.71
83027;BME280;72842;56.038;12.706;2024-03-02T08:32:01;100701.44;;;10.22;71.40
83027;BME280;72842;56.038;12.706;2024-03-02T08:34:26;100703.25;;;10.22;71.18
83027;BME280;72842;56.038;12.706;2024-03-02T08:36:52;100700.06;;;10.17;71.30
83027;BME280;72842;56.038;12.706;2024-03-02T08:39:18;100704.34;;;10.19;71.36
83027;BME280;72842;56.038;12.706;2024-03-02T08:41:45;100701.91;;;10.16;71.58
83027;BME280;72842;56.038;12.706;2024-03-02T08:44:11;100701.78;;;10.18;71.17
83027;BME280;72842;56.038;12.706;2024-03-02T08:46:37;100711.41;;;10.20;71.81
83027;BME280;72842;56.038;12.706;2024-03-02T08:49:02;100713.22;;;10.20;71.35
83027;BME280;72842;56.038;12.706;2024-03-02T08:51:28;100709.56;;;10.21;71.75
83027;BME280;72842;56.038;12.706;2024-03-02T08:53:54;100714.06;;;10.20;72.01
83027;BME280;72842;56.038;12.706;2024-03-02T08:56:19;100709.69;;;10.19;71.37
83027;BME280;72842;56.038;12.706;2024-03-02T08:58:46;100715.78;;;10.21;71.55
83027;BME280;72842;56.038;12.706;2024-03-02T09:01:12;100712.25;;;10.21;71.81
83027;BME280;72842;56.038;12.706;2024-03-02T09:03:37;100721.13;;;10.21;71.98
83027;BME280;72842;56.038;12.706;2024-03-02T09:06:03;100715.78;;;10.21;72.09
83027;BME280;72842;56.038;12.706;2024-03-02T09:08:29;100704.22;;;10.21;71.95
83027;BME280;72842;56.038;12.706;2024-03-02T09:10:55;100703.38;;;10.20;71.77
83027;BME280;72842;56.038;12.706;2024-03-02T09:13:21;100718.34;;;10.23;71.67
83027;BME280;72842;56.038;12.706;2024-03-02T09:15:47;100721.13;;;10.21;71.45
83027;BME280;72842;56.038;12.706;2024-03-02T09:18:13;100719.31;;;10.22;71.87
83027;BME280;72842;56.038;12.706;2024-03-02T09:20:38;100726.38;;;10.23;71.57
83027;BME280;72842;56.038;12.706;2024-03-02T09:23:04;100720.16;;;10.22;72.05
83027;BME280;72842;56.038;12.706;2024-03-02T09:25:29;100719.22;;;10.23;71.38
83027;BME280;72842;56.038;12.706;2024-03-02T09:27:55;100718.34;;;10.23;72.20
83027;BME280;72842;56.038;12.706;2024-03-02T09:30:20;100718.25;;;10.24;71.76
83027;BME280;72842;56.038;12.706;2024-03-02T09:32:45;100728.84;;;10.26;71.92
83027;BME280;72842;56.038;12.706;2024-03-02T09:35:11;100722.72;;;10.24;72.04
83027;BME280;72842;56.038;12.706;2024-03-02T09:37:37;100724.47;;;10.25;71.56
83027;BME280;72842;56.038;12.706;2024-03-02T09:40:04;100725.31;;;10.25;71.45
83027;BME280;72842;56.038;12.706;2024-03-02T09:42:29;100732.38;;;10.26;71.63
83027;BME280;72842;56.038;12.706;2024-03-02T09:44:55;100732.38;;;10.26;71.59
83027;BME280;72842;56.038;12.706;2024-03-02T09:47:22;100726.16;;;10.26;70.88
83027;BME280;72842;56.038;12.706;2024-03-02T09:49:47;100736.88;;;10.26;71.56
83027;BME280;72842;56.038;12.706;2024-03-02T09:52:13;100731.72;;;10.23;71.90
83027;BME280;72842;56.038;12.706;2024-03-02T09:54:40;100742.09;;;10.27;71.57
83027;BME280;72842;56.038;12.706;2024-03-02T09:57:05;100729.91;;;10.23;72.17
83027;BME280;72842;56.038;12.706;2024-03-02T09:59:31;100746.59;;;10.27;72.25
83027;BME280;72842;56.038;12.706;2024-03-02T10:01:59;100728.00;;;10.25;71.63
83027;BME280;72842;56.038;12.706;2024-03-02T10:04:31;100737.94;;;10.23;72.30
83027;BME280;72842;56.038;12.706;2024-03-02T10:07:16;100738.69;;;10.25;71.99
83027;BME280;72842;56.038;12.706;2024-03-02T10:09:44;100742.22;;;10.26;72.24
83027;BME280;72842;56.038;12.706;2024-03-02T10:12:11;100741.25;;;10.27;71.61
83027;BME280;72842;56.038;12.706;2024-03-02T10:14:37;100735.03;;;10.26;71.67
83027;BME280;72842;56.038;12.706;2024-03-02T10:17:05;100743.91;;;10.27;72.04
83027;BME280;72842;56.038;12.706;2024-03-02T10:19:31;100737.84;;;10.25;72.12
83027;BME280;72842;56.038;12.706;2024-03-02T10:21:59;100749.97;;;10.29;72.50
83027;BME280;72842;56.038;12.706;2024-03-02T10:24:25;100748.16;;;10.30;72.17
83027;BME280;72842;56.038;12.706;2024-03-02T10:26:51;100723.75;;;10.10;71.94
83027;BME280;72842;56.038;12.706;2024-03-02T10:29:17;100756.19;;;10.30;72.05
83027;BME280;72842;56.038;12.706;2024-03-02T10:31:44;100758.84;;;10.30;72.20
83027;BME280;72842;56.038;12.706;2024-03-02T10:34:12;100749.84;;;10.31;72.55
83027;BME280;72842;56.038;12.706;2024-03-02T10:36:40;100755.22;;;10.31;71.99
83027;BME280;72842;56.038;12.706;2024-03-02T10:39:07;100752.53;;;10.31;72.16
83027;BME280;72842;56.038;12.706;2024-03-02T10:41:37;100758.78;;;10.31;72.28
83027;BME280;72842;56.038;12.706;2024-03-02T10:44:05;100750.63;;;10.33;72.37
83027;BME280;72842;56.038;12.706;2024-03-02T10:46:32;100747.19;;;10.31;72.65
83027;BME280;72842;56.038;12.706;2024-03-02T10:48:59;100753.16;;;10.34;72.41
83027;BME280;72842;56.038;12.706;2024-03-02T10:51:29;100737.59;;;10.28;71.91
83027;BME280;72842;56.038;12.706;2024-03-02T10:53:58;100745.63;;;10.28;71.89
83027;BME280;72842;56.038;12.706;2024-03-02T10:56:31;100752.31;;;10.34;72.46
83027;BME280;72842;56.038;12.706;2024-03-02T11:01:31;100747.94;;;10.33;72.06
83027;BME280;72842;56.038;12.706;2024-03-02T11:03:58;100754.88;;;10.35;72.69
83027;BME280;72842;56.038;12.706;2024-03-02T11:06:26;100752.06;;;10.37;71.88
83027;BME280;72842;56.038;12.706;2024-03-02T11:08:55;100756.56;;;10.36;72.86
83027;BME280;72842;56.038;12.706;2024-03-02T11:11:30;100757.41;;;10.37;72.13
83027;BME280;72842;56.038;12.706;2024-03-02T11:14:01;100755.63;;;10.37;72.38
83027;BME280;72842;56.038;12.706;2024-03-02T11:16:36;100752.94;;;10.37;71.83
83027;BME280;72842;56.038;12.706;2024-03-02T11:19:15;100760.97;;;10.37;72.44
83027;BME280;72842;56.038;12.706;2024-03-02T11:21:42;100756.34;;;10.39;71.91
83027;BME280;72842;56.038;12.706;2024-03-02T11:27:09;100751.00;;;10.39;72.81
83027;BME280;72842;56.038;12.706;2024-03-02T11:32:14;100756.22;;;10.41;73.13
83027;BME280;72842;56.038;12.706;2024-03-02T11:34:42;100751.72;;;10.41;72.37
83027;BME280;72842;56.038;12.706;2024-03-02T11:37:12;100751.59;;;10.43;72.69
83027;BME280;72842;56.038;12.706;2024-03-02T11:39:39;100747.13;;;10.43;72.69
83027;BME280;72842;56.038;12.706;2024-03-02T11:42:07;100747.97;;;10.44;72.83
83027;BME280;72842;56.038;12.706;2024-03-02T11:44:35;100747.13;;;10.43;72.60
83027;BME280;72842;56.038;12.706;2024-03-02T11:47:02;100754.06;;;10.46;72.31
83027;BME280;72842;56.038;12.706;2024-03-02T11:49:46;100748.69;;;10.46;73.24
83027;BME280;72842;56.038;12.706;2024-03-02T11:52:13;100747.72;;;10.47;73.23
83027;BME280;72842;56.038;12.706;2024-03-02T11:54:41;100742.50;;;10.45;72.77
83027;BME280;72842;56.038;12.706;2024-03-02T11:57:12;100750.28;;;10.48;72.45
83027;BME280;72842;56.038;12.706;2024-03-02T11:59:38;100757.31;;;10.49;72.81
83027;BME280;72842;56.038;12.706;2024-03-02T12:02:04;100756.47;;;10.49;73.09
83027;BME280;72842;56.038;12.706;2024-03-02T12:04:30;100761.72;;;10.50;73.20
83027;BME280;72842;56.038;12.706;2024-03-02T12:06:58;100771.47;;;10.51;73.09
83027;BME280;72842;56.038;12.706;2024-03-02T12:09:27;100774.13;;;10.51;72.86
83027;BME280;72842;56.038;12.706;2024-03-02T12:12:07;100767.94;;;10.51;72.32
83027;BME280;72842;56.038;12.706;2024-03-02T12:14:34;100763.44;;;10.51;72.90
83027;BME280;72842;56.038;12.706;2024-03-02T12:17:00;100768.66;;;10.53;73.20
83027;BME280;72842;56.038;12.706;2024-03-02T12:19:26;100766.84;;;10.53;72.89
83027;BME280;72842;56.038;12.706;2024-03-02T12:21:53;100765.00;;;10.54;72.97
83027;BME280;72842;56.038;12.706;2024-03-02T12:24:20;100765.00;;;10.54;72.67
83027;BME280;72842;56.038;12.706;2024-03-02T12:26:46;100760.41;;;10.56;73.11
83027;BME280;72842;56.038;12.706;2024-03-02T12:29:13;100761.25;;;10.57;73.40
83027;BME280;72842;56.038;12.706;2024-03-02T12:31:40;100751.75;;;10.52;73.39
83027;BME280;72842;56.038;12.706;2024-03-02T12:34:06;100763.09;;;10.56;73.06
83027;BME280;72842;56.038;12.706;2024-03-02T12:36:39;100774.63;;;10.57;73.52
83027;BME280;72842;56.038;12.706;2024-03-02T12:39:07;100775.50;;;10.57;72.63
83027;BME280;72842;56.038;12.706;2024-03-02T12:41:36;100775.50;;;10.57;73.32
83027;BME280;72842;56.038;12.706;2024-03-02T12:44:02;100776.34;;;10.58;73.35
83027;BME280;72842;56.038;12.706;2024-03-02T12:46:27;100773.66;;;10.58;73.51